createdAt,value
2023-05-10T00:00:58.540Z,100869.66
2023-05-10T00:03:26.968Z,100857.16
2023-05-10T00:05:54.655Z,100800.84
2023-05-10T00:08:22.221Z,100857.03
2023-05-10T00:10:50.351Z,100855.38
2023-05-10T00:13:17.813Z,100840.25
2023-05-10T00:15:45.434Z,100847.13
2023-05-10T00:18:13.246Z,100846.41
2023-05-10T00:20:40.779Z,100843.78
2023-05-10T00:23:08.276Z,100833.06
2023-05-10T00:25:36.115Z,100835.84
2023-05-10T00:28:03.728Z,100830.84
2023-05-10T00:30:31.414Z,100831.09
2023-05-10T00:32:59.214Z,100823.03
2023-05-10T00:35:27.758Z,100816.34
2023-05-10T00:37:55.562Z,100825.19
2023-05-10T00:40:23.375Z,100823.87
2023-05-10T00:42:51.633Z,100815.12
2023-05-10T00:45:19.404Z,100768.59
2023-05-10T00:47:47.246Z,100816.37
2023-05-10T00:50:16.662Z,100818.16
2023-05-10T00:52:44.970Z,100814.38
2023-05-10T00:55:13.352Z,100825.00
2023-05-10T00:57:41.030Z,100814.56
2023-05-10T01:00:09.112Z,100816.22
2023-05-10T01:02:37.003Z,100814.81
2023-05-10T01:05:04.968Z,100808.72
2023-05-10T01:07:32.492Z,100809.94
2023-05-10T01:10:00.899Z,100809.19
2023-05-10T01:12:28.703Z,100803.56
2023-05-10T01:14:56.314Z,100803.06
2023-05-10T01:17:24.201Z,100747.88
2023-05-10T01:19:52.350Z,100801.34
2023-05-10T01:22:25.961Z,100800.75
2023-05-10T01:25:17.893Z,100807.69
2023-05-10T01:27:55.478Z,100807.38
2023-05-10T01:30:45.510Z,100803.91
2023-05-10T01:33:29.861Z,100802.47
2023-05-10T01:36:17.353Z,100808.94
2023-05-10T01:38:57.894Z,100807.75
2023-05-10T01:41:42.889Z,100804.91
2023-05-10T01:44:13.156Z,100800.84
2023-05-10T01:46:41.948Z,100762.72
2023-05-10T01:49:15.039Z,100804.53
2023-05-10T01:51:49.926Z,100794.28
2023-05-10T01:54:20.397Z,100748.63
2023-05-10T01:57:05.027Z,100738.56
2023-05-10T01:59:41.620Z,100737.47
2023-05-10T02:02:12.878Z,100787.47
2023-05-10T02:04:43.270Z,100783.91
2023-05-10T02:07:11.668Z,100783.41
2023-05-10T02:09:39.590Z,100781.88
2023-05-10T02:12:09.412Z,100775.03
2023-05-10T02:14:38.287Z,100777.88
2023-05-10T02:17:08.761Z,100780.56
2023-05-10T02:19:40.267Z,100773.91
2023-05-10T02:22:10.017Z,100767.16
2023-05-10T02:24:39.510Z,100715.66
2023-05-10T02:27:08.349Z,100768.13
2023-05-10T02:29:38.028Z,100767.34
2023-05-10T02:32:07.292Z,100768.47
2023-05-10T02:34:34.984Z,100760.84
2023-05-10T02:37:03.754Z,100766.47
2023-05-10T02:39:33.460Z,100752.28
2023-05-10T02:42:03.338Z,100753.97
2023-05-10T02:44:32.251Z,100760.50
2023-05-10T02:46:59.951Z,100759.06
2023-05-10T02:49:27.494Z,100758.47
2023-05-10T02:52:01.045Z,100760.75
2023-05-10T02:54:33.079Z,100762.16
2023-05-10T02:57:03.981Z,100715.19
2023-05-10T02:59:33.613Z,100758.94
2023-05-10T03:02:02.977Z,100710.56
2023-05-10T03:04:30.498Z,100765.16
2023-05-10T03:06:58.743Z,100754.75
2023-05-10T03:09:26.739Z,100759.78
2023-05-10T03:12:16.681Z,100756.69
2023-05-10T03:15:34.362Z,100763.72
2023-05-10T03:18:16.365Z,100761.78
2023-05-10T03:20:49.416Z,100747.25
2023-05-10T03:23:36.542Z,100762.28
2023-05-10T03:26:06.374Z,100763.38
2023-05-10T03:28:36.459Z,100761.47
2023-05-10T03:31:07.149Z,100774.31
2023-05-10T03:33:34.858Z,100772.31
2023-05-10T03:36:02.335Z,100770.03
2023-05-10T03:38:30.687Z,100766.22
2023-05-10T03:40:58.391Z,100766.09
2023-05-10T03:43:25.976Z,100768.19
2023-05-10T03:45:53.736Z,100763.66
2023-05-10T03:48:21.289Z,100763.88
2023-05-10T03:50:50.332Z,100763.06
2023-05-10T03:53:18.125Z,100761.25
2023-05-10T03:55:45.915Z,100718.37
2023-05-10T03:58:13.717Z,100768.66
2023-05-10T04:00:44.804Z,100761.25
2023-05-10T04:03:13.649Z,100737.19
2023-05-10T04:05:41.212Z,100758.97
2023-05-10T04:08:08.832Z,100769.69
2023-05-10T04:10:36.764Z,100720.72
2023-05-10T04:13:04.281Z,100769.56
2023-05-10T04:15:31.794Z,100768.47
2023-05-10T04:17:59.607Z,100720.69
2023-05-10T04:20:27.224Z,100766.19
2023-05-10T04:22:54.688Z,100766.63
2023-05-10T04:25:22.404Z,100761.91
2023-05-10T04:27:49.801Z,100772.03
2023-05-10T04:30:17.675Z,100764.22
2023-05-10T04:32:45.589Z,100765.06
2023-05-10T04:35:13.190Z,100766.53
2023-05-10T04:37:40.636Z,100767.69
2023-05-10T04:40:09.298Z,100768.53
2023-05-10T04:42:36.782Z,100764.88
2023-05-10T04:45:04.659Z,100768.06
2023-05-10T04:47:32.429Z,100766.19
2023-05-10T04:50:00.052Z,100757.22
2023-05-10T04:52:27.599Z,100757.12
2023-05-10T04:54:55.517Z,100758.03
2023-05-10T04:57:23.046Z,100756.91
2023-05-10T04:59:50.675Z,100756.81
2023-05-10T05:02:18.602Z,100760.03
2023-05-10T05:04:46.148Z,100761.34
2023-05-10T05:07:13.597Z,100763.00
2023-05-10T05:09:41.403Z,100763.03
2023-05-10T05:12:08.886Z,100769.69
2023-05-10T05:14:36.690Z,100765.00
2023-05-10T05:17:04.933Z,100768.19
2023-05-10T05:19:32.769Z,100774.59
2023-05-10T05:22:00.214Z,100771.41
2023-05-10T05:24:27.926Z,100755.19
2023-05-10T05:26:55.405Z,100768.91
2023-05-10T05:29:22.837Z,100766.25
2023-05-10T05:31:50.628Z,100774.31
2023-05-10T05:34:18.509Z,100764.47
2023-05-10T05:36:46.072Z,100773.72
2023-05-10T05:39:14.443Z,100767.78
2023-05-10T05:41:41.897Z,100769.47
2023-05-10T05:44:09.472Z,100723.50
2023-05-10T05:46:37.272Z,100769.69
2023-05-10T05:49:10.608Z,100777.53
2023-05-10T05:51:45.415Z,100774.78
2023-05-10T05:54:13.242Z,100772.09
2023-05-10T05:56:44.414Z,100766.13
2023-05-10T05:59:12.785Z,100764.47
2023-05-10T06:01:40.420Z,100769.00
2023-05-10T06:04:08.685Z,100773.06
2023-05-10T06:06:36.136Z,100771.56
2023-05-10T06:09:03.681Z,100775.34
2023-05-10T06:11:33.184Z,100773.66
2023-05-10T06:14:00.776Z,100782.22
2023-05-10T06:16:28.915Z,100777.88
2023-05-10T06:18:56.640Z,100735.69
2023-05-10T06:21:24.176Z,100777.22
2023-05-10T06:23:51.839Z,100777.84
2023-05-10T06:26:19.755Z,100785.03
2023-05-10T06:28:47.278Z,100788.50
2023-05-10T06:31:14.875Z,100756.28
2023-05-10T06:33:42.677Z,100788.63
2023-05-10T06:36:10.372Z,100747.09
2023-05-10T06:38:38.315Z,100791.62
2023-05-10T06:41:06.532Z,100797.09
2023-05-10T06:43:34.050Z,100799.34
2023-05-10T06:46:01.521Z,100791.47
2023-05-10T06:48:30.012Z,100795.44
2023-05-10T06:50:57.707Z,100805.50
2023-05-10T06:53:45.063Z,100792.66
2023-05-10T06:56:13.028Z,100805.81
2023-05-10T06:58:40.558Z,100805.63
2023-05-10T07:01:08.248Z,100804.72
2023-05-10T07:03:36.354Z,100797.44
2023-05-10T07:06:05.022Z,100757.50
2023-05-10T07:08:32.746Z,100781.38
2023-05-10T07:11:05.515Z,100793.44
2023-05-10T07:13:33.272Z,100791.62
2023-05-10T07:16:01.637Z,100793.91
2023-05-10T07:18:29.402Z,100794.25
2023-05-10T07:20:58.166Z,100784.38
2023-05-10T07:23:26.106Z,100744.59
2023-05-10T07:25:54.419Z,100784.28
2023-05-10T07:28:22.004Z,100775.72
2023-05-10T07:30:49.900Z,100780.91
2023-05-10T07:33:17.512Z,100779.66
2023-05-10T07:35:45.047Z,100777.03
2023-05-10T07:38:12.856Z,100778.63
2023-05-10T07:40:40.921Z,100772.84
2023-05-10T07:43:08.520Z,100771.50
2023-05-10T07:45:36.296Z,100769.56
2023-05-10T07:48:04.189Z,100777.34
2023-05-10T07:50:31.745Z,100770.22
2023-05-10T07:52:59.557Z,100769.50
2023-05-10T07:55:27.367Z,100732.69
2023-05-10T07:57:56.302Z,100728.84
2023-05-10T08:00:24.329Z,100772.50
2023-05-10T08:02:52.422Z,100766.13
2023-05-10T08:05:20.035Z,100775.06
2023-05-10T08:07:47.570Z,100772.97
2023-05-10T08:10:15.518Z,100764.12
2023-05-10T08:12:43.020Z,100764.06
2023-05-10T08:15:11.060Z,100761.72
2023-05-10T08:17:38.827Z,100724.47
2023-05-10T08:20:06.854Z,100766.88
2023-05-10T08:22:34.336Z,100759.63
2023-05-10T08:25:02.161Z,100754.09
2023-05-10T08:27:29.685Z,100755.53
2023-05-10T08:29:57.231Z,100753.97
2023-05-10T08:32:25.141Z,100765.06
2023-05-10T08:34:52.569Z,100747.59
2023-05-10T08:37:20.091Z,100762.87
2023-05-10T08:39:49.012Z,100767.78
2023-05-10T08:42:22.960Z,100759.03
2023-05-10T08:44:51.380Z,100767.00
2023-05-10T08:47:19.687Z,100755.72
2023-05-10T08:49:52.036Z,100756.97
2023-05-10T08:52:19.929Z,100713.94
2023-05-10T08:54:47.852Z,100711.34
2023-05-10T08:57:16.027Z,100756.97
2023-05-10T08:59:44.958Z,100751.12
2023-05-10T09:02:15.176Z,100757.06
2023-05-10T09:04:44.149Z,100749.81
2023-05-10T09:07:12.367Z,100743.38
2023-05-10T09:09:40.098Z,100742.72
2023-05-10T09:12:12.203Z,100739.25
2023-05-10T09:14:40.035Z,100735.87
2023-05-10T09:17:08.053Z,100731.94
2023-05-10T09:19:35.581Z,100729.88
2023-05-10T09:22:03.542Z,100726.56
2023-05-10T09:24:31.919Z,100696.09
2023-05-10T09:26:59.640Z,100678.34
2023-05-10T09:29:27.268Z,100725.53
2023-05-10T09:31:58.173Z,100731.03
2023-05-10T09:34:33.141Z,100728.56
2023-05-10T09:37:02.516Z,100736.69
2023-05-10T09:39:33.688Z,100719.31
2023-05-10T09:42:05.009Z,100716.75
2023-05-10T09:44:33.936Z,100713.22
2023-05-10T09:47:03.623Z,100715.91
2023-05-10T09:49:31.844Z,100717.25
2023-05-10T09:52:09.340Z,100712.72
2023-05-10T09:54:37.530Z,100706.91
2023-05-10T09:57:05.312Z,100708.69
2023-05-10T09:59:35.964Z,100715.28
2023-05-10T10:02:04.088Z,100674.66
2023-05-10T10:04:39.136Z,100707.19
2023-05-10T10:07:06.755Z,100657.00
2023-05-10T10:09:35.894Z,100706.88
2023-05-10T10:12:03.888Z,100698.91
2023-05-10T10:14:31.554Z,100698.16
2023-05-10T10:17:08.061Z,100696.09
2023-05-10T10:19:37.619Z,100708.81
2023-05-10T10:22:06.983Z,100696.09
2023-05-10T10:24:34.731Z,100686.59
2023-05-10T10:27:16.327Z,100661.13
2023-05-10T10:30:02.917Z,100700.66
2023-05-10T10:32:39.832Z,100699.44
2023-05-10T10:35:08.839Z,100695.00
2023-05-10T10:37:45.591Z,100690.38
2023-05-10T10:40:33.589Z,100653.75
2023-05-10T10:43:25.275Z,100685.28
2023-05-10T10:46:13.379Z,100679.28
2023-05-10T10:49:09.187Z,100669.53
2023-05-10T10:51:40.590Z,100672.09
2023-05-10T10:54:11.581Z,100666.41
2023-05-10T10:56:39.459Z,100631.41
2023-05-10T10:59:08.562Z,100660.25
2023-05-10T11:01:36.491Z,100661.28
2023-05-10T11:04:04.478Z,100668.09
2023-05-10T11:06:36.992Z,100659.62
2023-05-10T11:09:09.679Z,100658.38
2023-05-10T11:11:49.097Z,100654.88
2023-05-10T11:14:22.638Z,100664.34
2023-05-10T11:16:50.408Z,100648.28
2023-05-10T11:19:19.424Z,100646.25
2023-05-10T11:21:52.312Z,100642.62
2023-05-10T11:24:23.865Z,100606.66
2023-05-10T11:26:54.940Z,100641.06
2023-05-10T11:29:23.303Z,100594.19
2023-05-10T11:31:50.904Z,100631.91
2023-05-10T11:34:25.131Z,100631.03
2023-05-10T11:36:54.993Z,100632.41
2023-05-10T11:39:27.717Z,100587.06
2023-05-10T11:41:56.189Z,100618.66
2023-05-10T11:44:24.147Z,100588.00
2023-05-10T11:46:51.793Z,100626.63
2023-05-10T11:49:19.703Z,100586.88
2023-05-10T11:51:48.145Z,100625.16
2023-05-10T11:54:15.748Z,100624.09
2023-05-10T11:56:43.485Z,100620.75
2023-05-10T11:59:11.194Z,100624.72
2023-05-10T12:01:38.781Z,100624.59
2023-05-10T12:04:07.089Z,100621.47
2023-05-10T12:06:42.152Z,100622.72
2023-05-10T12:09:09.901Z,100622.91
2023-05-10T12:11:44.311Z,100624.41
2023-05-10T12:14:12.602Z,100620.69
2023-05-10T12:16:40.071Z,100616.91
2023-05-10T12:19:07.706Z,100619.00
2023-05-10T12:21:35.654Z,100614.69
2023-05-10T12:24:04.816Z,100614.91
2023-05-10T12:26:33.340Z,100619.22
2023-05-10T12:29:21.347Z,100612.19
2023-05-10T12:31:56.915Z,100609.78
2023-05-10T12:34:35.297Z,100621.19
2023-05-10T12:37:04.064Z,100619.16
2023-05-10T12:39:45.842Z,100603.69
2023-05-10T12:42:13.328Z,100614.69
2023-05-10T12:44:41.278Z,100609.34
2023-05-10T12:47:08.697Z,100604.00
2023-05-10T12:49:36.460Z,100613.84
2023-05-10T12:52:04.406Z,100572.59
2023-05-10T12:54:32.294Z,100607.00
2023-05-10T12:57:00.200Z,100599.56
2023-05-10T12:59:27.980Z,100553.84
2023-05-10T13:01:55.491Z,100588.03
2023-05-10T13:04:23.009Z,100588.47
2023-05-10T13:06:50.801Z,100590.72
2023-05-10T13:09:18.245Z,100578.16
2023-05-10T13:11:46.575Z,100564.81
2023-05-10T13:14:14.445Z,100578.56
2023-05-10T13:16:41.955Z,100573.91
2023-05-10T13:19:09.703Z,100577.84
2023-05-10T13:21:37.980Z,100530.50
2023-05-10T13:24:06.715Z,100566.53
2023-05-10T13:26:34.419Z,100561.84
2023-05-10T13:29:02.185Z,100557.41
2023-05-10T13:31:29.758Z,100552.47
2023-05-10T13:33:57.297Z,100558.13
2023-05-10T13:36:25.065Z,100503.53
2023-05-10T13:38:52.472Z,100537.81
2023-05-10T13:41:20.066Z,100534.09
2023-05-10T13:43:49.797Z,100534.41
2023-05-10T13:46:17.221Z,100509.75
2023-05-10T13:48:44.660Z,100546.34
2023-05-10T13:51:12.474Z,100535.06
2023-05-10T13:53:40.015Z,100539.38
2023-05-10T13:56:07.565Z,100533.44
2023-05-10T13:58:36.800Z,100530.38
2023-05-10T14:01:05.829Z,100530.59
2023-05-10T14:03:33.911Z,100523.75
2023-05-10T14:06:01.511Z,100496.12
2023-05-10T14:08:29.034Z,100519.38
2023-05-10T14:10:57.956Z,100480.72
2023-05-10T14:13:26.001Z,100516.28
2023-05-10T14:15:55.000Z,100513.78
2023-05-10T14:18:22.958Z,100512.56
2023-05-10T14:20:50.538Z,100516.28
2023-05-10T14:23:18.072Z,100519.38
2023-05-10T14:25:46.139Z,100514.44
2023-05-10T14:28:13.830Z,100507.03
2023-05-10T14:30:41.284Z,100468.34
2023-05-10T14:33:09.126Z,100511.94
2023-05-10T14:35:37.109Z,100515.81
2023-05-10T14:38:05.110Z,100508.13
2023-05-10T14:40:33.188Z,100519.50
2023-05-10T14:43:00.729Z,100519.72
2023-05-10T14:45:28.397Z,100510.97
2023-05-10T14:47:56.266Z,100513.78
2023-05-10T14:50:35.878Z,100511.31
2023-05-10T14:53:05.129Z,100472.78
2023-05-10T14:55:33.714Z,100496.78
2023-05-10T14:58:01.231Z,100508.06
2023-05-10T15:00:30.473Z,100510.06
2023-05-10T15:02:58.653Z,100511.09
2023-05-10T15:05:26.889Z,100507.47
2023-05-10T15:07:55.259Z,100504.59
2023-05-10T15:10:23.371Z,100502.69
2023-05-10T15:12:51.438Z,100470.06
2023-05-10T15:15:19.368Z,100503.88
2023-05-10T15:17:47.137Z,100460.19
2023-05-10T15:20:15.054Z,100507.00
2023-05-10T15:22:42.847Z,100501.37
2023-05-10T15:25:10.859Z,100504.06
2023-05-10T15:27:38.472Z,100501.66
2023-05-10T15:30:07.471Z,100501.87
2023-05-10T15:32:34.951Z,100505.47
2023-05-10T15:35:03.524Z,100500.94
2023-05-10T15:37:31.267Z,100504.19
2023-05-10T15:40:04.421Z,100500.41
2023-05-10T15:42:33.005Z,100494.19
2023-05-10T15:45:00.418Z,100495.56
2023-05-10T15:47:31.292Z,100498.69
2023-05-10T15:49:59.039Z,100496.00
2023-05-10T15:52:26.620Z,100491.19
2023-05-10T15:54:54.085Z,100493.25
2023-05-10T15:57:21.914Z,100493.97
2023-05-10T15:59:49.468Z,100487.53
2023-05-10T16:02:17.668Z,100492.03
2023-05-10T16:04:45.839Z,100483.22
2023-05-10T16:07:13.366Z,100486.56
2023-05-10T16:09:41.322Z,100483.63
2023-05-10T16:12:09.173Z,100490.75
2023-05-10T16:14:36.645Z,100476.53
2023-05-10T16:17:04.788Z,100489.16
2023-05-10T16:19:32.840Z,100493.38
2023-05-10T16:22:00.595Z,100496.56
2023-05-10T16:24:28.271Z,100487.41
2023-05-10T16:26:56.269Z,100492.62
2023-05-10T16:29:23.694Z,100484.78
2023-05-10T16:31:51.088Z,100450.41
2023-05-10T16:34:20.561Z,100499.31
2023-05-10T16:36:48.003Z,100498.88
2023-05-10T16:39:15.456Z,100499.19
2023-05-10T16:41:43.335Z,100495.81
2023-05-10T16:44:10.893Z,100499.84
2023-05-10T16:46:38.334Z,100502.25
2023-05-10T16:49:06.814Z,100497.09
2023-05-10T16:51:34.260Z,100503.44
2023-05-10T16:54:01.686Z,100501.31
2023-05-10T16:56:29.464Z,100491.72
2023-05-10T16:58:56.938Z,100500.81
2023-05-10T17:01:26.549Z,100511.19
2023-05-10T17:03:54.933Z,100511.09
2023-05-10T17:06:22.404Z,100514.75
2023-05-10T17:08:49.876Z,100519.25
2023-05-10T17:11:19.912Z,100511.94
2023-05-10T17:13:47.969Z,100518.44
2023-05-10T17:16:15.657Z,100515.84
2023-05-10T17:18:45.818Z,100476.28
2023-05-10T17:21:13.359Z,100517.47
2023-05-10T17:23:40.864Z,100524.87
2023-05-10T17:26:08.872Z,100520.91
2023-05-10T17:28:36.289Z,100522.84
2023-05-10T17:31:04.034Z,100523.38
2023-05-10T17:33:31.736Z,100478.09
2023-05-10T17:35:59.194Z,100522.81
2023-05-10T17:38:26.658Z,100478.19
2023-05-10T17:40:54.940Z,100530.84
2023-05-10T17:43:23.489Z,100532.56
2023-05-10T17:45:51.109Z,100525.31
2023-05-10T17:48:18.965Z,100529.31
2023-05-10T17:50:46.376Z,100541.13
2023-05-10T17:53:13.786Z,100533.69
2023-05-10T17:55:42.265Z,100537.06
2023-05-10T17:58:11.587Z,100498.88
2023-05-10T18:00:39.185Z,100545.41
2023-05-10T18:03:07.149Z,100541.41
2023-05-10T18:05:39.090Z,100510.59
2023-05-10T18:08:07.544Z,100511.78
2023-05-10T18:10:36.087Z,100544.53
2023-05-10T18:13:06.892Z,100552.19
2023-05-10T18:15:35.879Z,100557.53
2023-05-10T18:18:04.529Z,100564.38
2023-05-10T18:20:32.056Z,100565.87
2023-05-10T18:22:59.797Z,100566.09
2023-05-10T18:25:27.406Z,100572.06
2023-05-10T18:27:55.002Z,100567.62
2023-05-10T18:30:23.093Z,100571.28
2023-05-10T18:32:50.828Z,100578.78
2023-05-10T18:35:18.745Z,100586.75
2023-05-10T18:37:47.204Z,100591.38
2023-05-10T18:40:17.305Z,100592.03
2023-05-10T18:42:46.627Z,100591.03
2023-05-10T18:45:14.900Z,100595.03
2023-05-10T18:47:42.971Z,100597.34
2023-05-10T18:50:11.039Z,100598.50
2023-05-10T18:52:38.768Z,100599.34
2023-05-10T18:55:07.051Z,100599.16
2023-05-10T18:57:41.216Z,100602.13
2023-05-10T19:00:12.237Z,100608.44
2023-05-10T19:02:40.554Z,100603.41
2023-05-10T19:05:08.725Z,100609.19
2023-05-10T19:07:37.011Z,100616.78
2023-05-10T19:10:05.039Z,100563.38
2023-05-10T19:12:32.970Z,100607.81
2023-05-10T19:15:01.496Z,100616.56
2023-05-10T19:17:30.264Z,100623.69
2023-05-10T19:19:59.274Z,100617.19
2023-05-10T19:22:44.885Z,100624.53
2023-05-10T19:25:16.893Z,100612.44
2023-05-10T19:27:45.102Z,100615.50
2023-05-10T19:30:12.917Z,100632.53
2023-05-10T19:32:44.179Z,100623.09
2023-05-10T19:35:13.212Z,100623.44
2023-05-10T19:37:45.916Z,100627.37
2023-05-10T19:40:15.955Z,100627.53
2023-05-10T19:42:43.515Z,100628.69
2023-05-10T19:45:12.074Z,100580.88
2023-05-10T19:47:40.294Z,100582.87
2023-05-10T19:50:08.608Z,100629.09
2023-05-10T19:52:36.386Z,100626.94
2023-05-10T19:55:05.203Z,100625.59
2023-05-10T19:57:33.008Z,100629.69
2023-05-10T20:00:00.546Z,100603.28
2023-05-10T20:02:28.289Z,100626.84
2023-05-10T20:04:56.244Z,100627.16
2023-05-10T20:07:23.667Z,100630.25
2023-05-10T20:09:51.260Z,100625.28
2023-05-10T20:12:19.075Z,100627.09
2023-05-10T20:14:46.578Z,100619.50
2023-05-10T20:17:14.066Z,100625.22
2023-05-10T20:19:41.849Z,100628.34
2023-05-10T20:22:09.496Z,100625.19
2023-05-10T20:24:37.036Z,100589.28
2023-05-10T20:27:04.865Z,100626.47
2023-05-10T20:29:32.687Z,100590.38
2023-05-10T20:32:00.306Z,100632.00
2023-05-10T20:34:28.166Z,100642.44
2023-05-10T20:36:55.569Z,100647.19
2023-05-10T20:39:23.163Z,100645.00
2023-05-10T20:41:54.585Z,100632.94
2023-05-10T20:44:22.119Z,100635.03
2023-05-10T20:46:49.571Z,100636.84
2023-05-10T20:49:17.643Z,100638.28
2023-05-10T20:51:45.107Z,100600.53
2023-05-10T20:54:12.512Z,100647.50
2023-05-10T20:56:40.189Z,100638.38
2023-05-10T20:59:07.640Z,100592.16
2023-05-10T21:01:35.120Z,100630.34
2023-05-10T21:04:03.523Z,100637.59
2023-05-10T21:06:32.046Z,100640.66
2023-05-10T21:08:59.484Z,100635.38
2023-05-10T21:11:27.197Z,100634.16
2023-05-10T21:13:54.716Z,100634.34
2023-05-10T21:16:22.188Z,100629.34
2023-05-10T21:18:49.903Z,100631.31
2023-05-10T21:21:17.352Z,100586.75
2023-05-10T21:23:47.716Z,100637.19
2023-05-10T21:26:16.307Z,100628.44
2023-05-10T21:28:44.736Z,100633.87
2023-05-10T21:31:12.427Z,100585.84
2023-05-10T21:33:40.711Z,100635.81
2023-05-10T21:36:08.539Z,100629.87
2023-05-10T21:38:36.085Z,100634.59
2023-05-10T21:41:07.846Z,100615.38
2023-05-10T21:43:35.287Z,100629.19
2023-05-10T21:46:03.055Z,100619.22
2023-05-10T21:48:30.937Z,100619.34
2023-05-10T21:50:59.107Z,100623.97
2023-05-10T21:53:26.736Z,100627.06
2023-05-10T21:55:56.292Z,100629.00
2023-05-10T21:58:23.923Z,100572.97
2023-05-10T22:00:52.039Z,100585.87
2023-05-10T22:03:19.928Z,100633.22
2023-05-10T22:05:47.483Z,100634.34
2023-05-10T22:08:14.974Z,100629.38
2023-05-10T22:10:42.683Z,100634.94
2023-05-10T22:13:10.091Z,100622.47
2023-05-10T22:15:37.703Z,100631.06
2023-05-10T22:18:05.652Z,100586.94
2023-05-10T22:20:33.550Z,100637.13
2023-05-10T22:23:01.075Z,100636.94
2023-05-10T22:25:28.787Z,100631.41
2023-05-10T22:27:56.247Z,100634.44
2023-05-10T22:30:23.820Z,100632.94
2023-05-10T22:32:51.684Z,100642.69
2023-05-10T22:35:19.334Z,100634.66
2023-05-10T22:37:47.333Z,100634.78
2023-05-10T22:40:15.366Z,100625.62
2023-05-10T22:42:42.950Z,100629.66
2023-05-10T22:45:10.901Z,100637.31
2023-05-10T22:47:38.795Z,100632.47
2023-05-10T22:50:07.003Z,100584.78
2023-05-10T22:52:34.574Z,100629.00
2023-05-10T22:55:02.639Z,100621.34
2023-05-10T22:57:31.026Z,100573.81
2023-05-10T22:59:58.671Z,100624.53
2023-05-10T23:02:27.270Z,100631.03
2023-05-10T23:04:54.775Z,100580.06
2023-05-10T23:07:22.554Z,100626.63
2023-05-10T23:09:50.303Z,100623.44
2023-05-10T23:12:17.925Z,100622.03
2023-05-10T23:14:46.655Z,100627.44
2023-05-10T23:17:14.592Z,100577.94
2023-05-10T23:19:42.056Z,100613.84
2023-05-10T23:22:10.029Z,100624.91
2023-05-10T23:24:39.214Z,100570.44
2023-05-10T23:27:06.699Z,100625.03
2023-05-10T23:29:34.797Z,100574.69
2023-05-10T23:32:02.545Z,100616.69
2023-05-10T23:34:30.101Z,100617.53
2023-05-10T23:36:57.561Z,100634.53
2023-05-10T23:39:25.340Z,100610.91
2023-05-10T23:41:52.860Z,100628.84
2023-05-10T23:44:20.268Z,100624.81
2023-05-10T23:46:48.023Z,100625.97
2023-05-10T23:49:15.511Z,100626.56
2023-05-10T23:51:42.999Z,100619.53
2023-05-10T23:54:10.855Z,100625.03
2023-05-10T23:56:38.408Z,100616.41
2023-05-10T23:59:06.184Z,100623.63
